TimeEST,TemperatureF,Dew PointF,Humidity,Sea Level PressureIn,VisibilityMPH,Wind Direction,Wind SpeedMPH,Gust SpeedMPH,PrecipitationIn,Events,Conditions,WindDirDegrees,DateUTC
12:15 AM,26.6,23.0,86,30.10,10.0,SW,4.6,-,N/A,,Clear,220,2013-03-05 05:15:00
12:35 AM,28.4,24.8,86,30.10,10.0,SSW,4.6,-,N/A,,Clear,210,2013-03-05 05:35:00
12:55 AM,28.4,23.0,80,30.10,10.0,Calm,Calm,-,N/A,,Clear,0,2013-03-05 05:55:00
1:15 AM,30.2,21.2,69,30.10,10.0,Calm,Calm,-,N/A,,Clear,0,2013-03-05 06:15:00
2:35 AM,30.2,24.8,80,30.09,10.0,Calm,Calm,-,N/A,,Clear,0,2013-03-05 07:35:00
2:55 AM,30.2,24.8,80,30.09,10.0,Calm,Calm,-,N/A,,Clear,0,2013-03-05 07:55:00
3:15 AM,28.4,24.8,86,30.09,10.0,Calm,Calm,-,N/A,,Clear,0,2013-03-05 08:15:00
3:35 AM,28.4,24.8,86,30.09,10.0,Calm,Calm,-,N/A,,Clear,0,2013-03-05 08:35:00
3:55 AM,28.4,24.8,86,30.09,10.0,Calm,Calm,-,N/A,,Clear,0,2013-03-05 08:55:00
4:15 AM,28.4,24.8,86,30.10,10.0,Calm,Calm,-,N/A,,Clear,0,2013-03-05 09:15:00
4:35 AM,28.4,24.8,86,30.10,10.0,Calm,Calm,-,N/A,,Clear,0,2013-03-05 09:35:00
4:55 AM,28.4,24.8,86,30.11,10.0,Calm,Calm,-,N/A,,Partly Cloudy,0,2013-03-05 09:55:00
5:15 AM,30.2,26.6,86,30.12,10.0,Calm,Calm,-,N/A,,Mostly Cloudy,0,2013-03-05 10:15:00
5:35 AM,30.2,26.6,86,30.12,10.0,Calm,Calm,-,N/A,,Partly Cloudy,0,2013-03-05 10:35:00
5:55 AM,30.2,26.6,86,30.11,10.0,Calm,Calm,-,N/A,,Clear,0,2013-03-05 10:55:00
6:15 AM,32.0,24.8,75,30.12,10.0,Calm,Calm,-,N/A,,Clear,0,2013-03-05 11:15:00
6:35 AM,30.2,26.6,86,30.12,10.0,Calm,Calm,-,N/A,,Clear,0,2013-03-05 11:35:00
6:55 AM,30.2,26.6,86,30.12,10.0,Calm,Calm,-,N/A,,Clear,0,2013-03-05 11:55:00
7:15 AM,30.2,28.4,93,30.12,10.0,Calm,Calm,-,N/A,,Clear,0,2013-03-05 12:15:00
7:35 AM,33.8,28.4,81,30.12,10.0,Calm,Calm,-,N/A,,Clear,0,2013-03-05 12:35:00
8:15 AM,39.2,32.0,75,30.12,10.0,SW,4.6,-,N/A,,Clear,220,2013-03-05 13:15:00
8:35 AM,44.6,33.8,66,30.10,10.0,SSW,3.5,-,N/A,,Clear,210,2013-03-05 13:35:00
8:55 AM,48.2,33.8,58,30.10,10.0,SSW,8.1,-,N/A,,Clear,200,2013-03-05 13:55:00
9:15 AM,51.8,32.0,47,30.09,10.0,SSW,9.2,-,N/A,,Clear,200,2013-03-05 14:15:00
9:35 AM,53.6,30.2,41,30.09,10.0,SSW,10.4,-,N/A,,Clear,200,2013-03-05 14:35:00
9:55 AM,55.4,30.2,38,30.08,10.0,SSW,9.2,16.1,N/A,,Clear,210,2013-03-05 14:55:00
10:15 AM,57.2,30.2,36,30.08,10.0,SSW,11.5,-,N/A,,Clear,200,2013-03-05 15:15:00
10:35 AM,59.0,30.2,34,30.07,10.0,SSW,10.4,-,N/A,,Clear,200,2013-03-05 15:35:00
10:55 AM,60.8,32.0,34,30.05,10.0,SSW,10.4,-,N/A,,Clear,200,2013-03-05 15:55:00
11:15 AM,62.6,32.0,32,30.04,10.0,SW,11.5,-,N/A,,Clear,230,2013-03-05 16:15:00
11:35 AM,62.6,32.0,32,30.03,10.0,SW,10.4,-,N/A,,Partly Cloudy,220,2013-03-05 16:35:00
11:55 AM,62.6,32.0,32,30.02,10.0,South,10.4,16.1,N/A,,Mostly Cloudy,170,2013-03-05 16:55:00
12:15 PM,62.6,32.0,32,30.02,10.0,South,5.8,-,N/A,,Overcast,190,2013-03-05 17:15:00
12:35 PM,62.6,32.0,32,30.00,10.0,South,11.5,-,N/A,,Overcast,190,2013-03-05 17:35:00
12:55 PM,64.4,33.8,32,29.99,10.0,South,9.2,-,N/A,,Overcast,190,2013-03-05 17:55:00
1:15 PM,62.6,33.8,34,29.98,10.0,SSW,8.1,-,N/A,,Overcast,210,2013-03-05 18:15:00
1:35 PM,62.6,33.8,34,29.96,10.0,SSW,8.1,-,N/A,,Overcast,200,2013-03-05 18:35:00
1:55 PM,62.6,35.6,37,29.95,10.0,South,5.8,-,N/A,,Overcast,190,2013-03-05 18:55:00
2:15 PM,62.6,35.6,37,29.94,10.0,SSW,11.5,-,N/A,,Overcast,200,2013-03-05 19:15:00
2:35 PM,62.6,35.6,37,29.94,10.0,South,9.2,17.3,N/A,,Overcast,190,2013-03-05 19:35:00
2:55 PM,62.6,35.6,37,29.93,10.0,SSW,11.5,-,N/A,,Overcast,210,2013-03-05 19:55:00
3:15 PM,62.6,35.6,37,29.92,10.0,SSW,13.8,19.6,N/A,,Overcast,200,2013-03-05 20:15:00
3:35 PM,60.8,37.4,42,29.91,10.0,SSW,9.2,17.3,N/A,,Overcast,210,2013-03-05 20:35:00
3:55 PM,60.8,37.4,42,29.91,10.0,South,18.4,21.9,N/A,,Overcast,190,2013-03-05 20:55:00
4:15 PM,60.8,39.2,45,29.90,10.0,SW,6.9,-,N/A,,Overcast,220,2013-03-05 21:15:00
4:35 PM,59.0,37.4,45,29.90,10.0,SSW,11.5,-,N/A,,Overcast,200,2013-03-05 21:35:00
4:55 PM,60.8,39.2,45,29.89,10.0,South,6.9,-,N/A,,Overcast,190,2013-03-05 21:55:00
5:15 PM,57.2,37.4,48,29.88,10.0,South,3.5,-,N/A,,Scattered Clouds,170,2013-03-05 22:15:00
5:35 PM,57.2,37.4,48,29.88,10.0,South,6.9,-,N/A,,Partly Cloudy,170,2013-03-05 22:35:00
5:55 PM,55.4,37.4,51,29.88,10.0,South,3.5,-,N/A,,Clear,180,2013-03-05 22:55:00
6:15 PM,55.4,39.2,54,29.86,10.0,SSE,4.6,-,N/A,,Clear,160,2013-03-05 23:15:00
6:35 PM,53.6,39.2,58,29.84,10.0,SE,4.6,-,N/A,,Clear,140,2013-03-05 23:35:00
6:55 PM,53.6,39.2,58,29.85,10.0,South,4.6,-,N/A,,Partly Cloudy,170,2013-03-05 23:55:00
7:15 PM,53.6,39.2,58,29.84,10.0,South,4.6,-,N/A,,Partly Cloudy,170,2013-03-06 00:15:00
7:35 PM,53.6,39.2,58,29.82,10.0,South,5.8,-,N/A,,Mostly Cloudy,170,2013-03-06 00:35:00
7:55 PM,53.6,41.0,62,29.81,10.0,South,8.1,-,N/A,,Overcast,180,2013-03-06 00:55:00
8:15 PM,55.4,41.0,58,29.80,10.0,South,11.5,-,N/A,,Overcast,190,2013-03-06 01:15:00
8:35 PM,55.4,42.8,63,29.79,10.0,SSW,11.5,20.7,N/A,,Overcast,200,2013-03-06 01:35:00
8:55 PM,57.2,44.6,63,29.76,10.0,South,13.8,-,N/A,,Mostly Cloudy,180,2013-03-06 01:55:00
9:15 PM,57.2,42.8,59,29.74,10.0,South,11.5,-,N/A,,Partly Cloudy,180,2013-03-06 02:15:00
9:35 PM,57.2,44.6,63,29.73,10.0,South,13.8,20.7,N/A,,Scattered Clouds,180,2013-03-06 02:35:00
9:55 PM,57.2,44.6,63,29.72,10.0,South,12.7,-,N/A,,Mostly Cloudy,190,2013-03-06 02:55:00
10:15 PM,57.2,46.4,67,29.70,10.0,South,15.0,-,N/A,,Overcast,180,2013-03-06 03:15:00
10:35 PM,57.2,46.4,67,29.69,10.0,South,13.8,20.7,N/A,,Mostly Cloudy,180,2013-03-06 03:35:00
10:55 PM,57.2,48.2,72,29.67,10.0,South,11.5,19.6,N/A,,Mostly Cloudy,180,2013-03-06 03:55:00
11:15 PM,55.4,50.0,82,29.66,10.0,South,13.8,-,N/A,,Overcast,180,2013-03-06 04:15:00
11:35 PM,55.4,51.8,88,29.65,9.0,South,13.8,19.6,N/A,,Mostly Cloudy,190,2013-03-06 04:35:00
11:55 PM,55.4,51.8,88,29.63,9.0,South,10.4,-,N/A,,Mostly Cloudy,190,2013-03-06 04:55:00